Time;durP1;ratioP1;P1;durP2;ratioP2;P2;SDS_P1;SDS_P2;PMS_P1;PMS_P2;Temp;Humidity;BMP_temperature;BMP_pressure;BME280_temperature;BME280_humidity;BME280_pressure;Samples;Min_cycle;Max_cycle;Signal;HPM_P1;HPM_P2
2022/09/04 00:02:14;;;;;;;;;1.00;1.00;;;;;21.17;53.76;98751.94;4873093;28;102349;-86
2022/09/04 00:04:48;;;;;;;;;1.33;0.67;;;;;21.16;54.08;98751.13;4879019;28;102585;-86
2022/09/04 00:07:33;;;;;;;;;0.33;0.33;;;;;21.15;54.02;98743.97;4878490;28;105808;-85
2022/09/04 00:10:28;;;;;;;;;0.33;0.33;;;;;21.17;53.69;98736.25;4870195;28;109404;-86
2022/09/04 00:13:26;;;;;;;;;0.67;0.67;;;;;21.15;53.78;98732.13;4874709;28;102384;-85
2022/09/04 00:15:59;;;;;;;;;0.67;0.67;;;;;21.15;53.54;98743.97;4886151;28;104135;-86
2022/09/04 00:18:44;;;;;;;;;1.67;0.67;;;;;21.14;53.97;98750.56;4880329;28;102569;-86
2022/09/04 00:21:23;;;;;;;;;2.00;2.00;;;;;21.14;53.79;98746.97;4863074;28;108919;-86
2022/09/04 00:23:53;;;;;;;;;0.33;0.33;;;;;21.14;53.72;98758.81;4876443;28;102247;-86
2022/09/04 00:26:38;;;;;;;;;0.33;0.33;;;;;21.12;54.22;98760.16;4858761;28;103906;-85
2022/09/04 00:29:11;;;;;;;;;1.00;1.00;;;;;21.12;53.89;98754.66;4875108;28;103725;-86
2022/09/04 00:31:47;;;;;;;;;0.67;0.67;;;;;21.11;54.22;98748.31;4857463;28;103984;-86
2022/09/04 00:34:13;;;;;;;;;1.00;1.00;;;;;21.10;53.98;98752.16;4878487;28;102437;-86
2022/09/04 00:36:42;;;;;;;;;1.00;1.00;;;;;21.10;53.94;98749.41;4875894;28;102389;-86
2022/09/04 00:39:18;;;;;;;;;1.00;1.00;;;;;21.09;54.13;98753.22;4874714;28;103120;-86
2022/09/04 00:42:21;;;;;;;;;0.67;0.67;;;;;21.09;53.78;98753.22;4859565;28;108815;-86
2022/09/04 00:45:03;;;;;;;;;0.33;0.33;;;;;21.10;54.25;98756.81;4865483;28;102545;-85
2022/09/04 00:47:33;;;;;;;;;0.67;0.67;;;;;21.09;53.76;98755.97;4876299;28;102374;-86
2022/09/04 00:50:10;;;;;;;;;0.67;0.67;;;;;21.09;54.09;98750.47;4882613;28;102607;-86
2022/09/04 00:53:01;;;;;;;;;1.00;1.00;;;;;21.09;54.15;98757.91;4874258;28;103924;-86
2022/09/04 00:55:49;;;;;;;;;1.00;1.00;;;;;21.08;53.74;98751.56;4840694;28;102328;-86
2022/09/04 00:58:37;;;;;;;;;0.00;0.00;;;;;21.08;53.62;98753.50;4876812;28;102352;-85
2022/09/04 01:01:04;;;;;;;;;0.00;0.00;;;;;21.07;53.77;98763.69;4872575;28;102688;-86
2022/09/04 01:03:49;;;;;;;;;1.67;0.67;;;;;21.06;53.82;98761.19;4857591;28;104574;-86
2022/09/04 01:06:40;;;;;;;;;2.00;1.00;;;;;21.05;54.27;98767.78;4871261;28;102858;-84
2022/09/04 01:09:45;;;;;;;;;0.33;0.33;;;;;21.03;54.08;98768.03;4874217;28;102205;-86
2022/09/04 01:13:01;;;;;;;;;0.67;0.67;;;;;21.03;53.81;98768.03;4871712;28;102662;-86
2022/09/04 01:15:58;;;;;;;;;1.00;1.00;;;;;21.02;54.43;98766.41;4870830;28;107785;-85
2022/09/04 01:19:21;;;;;;;;;0.67;0.67;;;;;21.03;54.22;98758.97;4872123;28;102548;-86
2022/09/04 01:22:40;;;;;;;;;0.00;0.00;;;;;21.02;54.21;98760.91;4875969;28;102352;-85
2022/09/04 01:25:46;;;;;;;;;0.33;0.33;;;;;21.01;53.87;98762.00;4871016;28;103912;-85
2022/09/04 01:28:31;;;;;;;;;1.00;0.67;;;;;21.02;54.06;98760.91;4877311;28;108794;-86
2022/09/04 01:31:19;;;;;;;;;2.00;1.00;;;;;21.02;53.74;98760.91;4873514;28;103791;-86
2022/09/04 01:34:07;;;;;;;;;0.00;0.00;;;;;21.01;53.79;98759.25;4870796;28;102483;-83
2022/09/04 01:36:53;;;;;;;;;1.00;1.00;;;;;21.00;53.45;98751.25;4880714;28;102237;-86
2022/09/04 01:39:21;;;;;;;;;0.00;0.00;;;;;21.00;53.73;98756.75;4877439;28;108491;-85
2022/09/04 01:42:02;;;;;;;;;0.67;0.67;;;;;20.99;53.72;98764.16;4869114;28;103451;-86
2022/09/04 01:44:29;;;;;;;;;1.00;1.00;;;;;20.99;53.97;98772.41;4876746;28;102180;-86
2022/09/04 01:47:10;;;;;;;;;0.33;0.33;;;;;20.98;54.08;98776.28;4874062;28;102673;-86
2022/09/04 01:49:37;;;;;;;;;0.67;0.67;;;;;20.98;54.18;98775.44;4859539;28;103962;-86
2022/09/04 01:52:13;;;;;;;;;1.00;0.67;;;;;20.97;54.34;98780.09;4876656;28;102287;-86
2022/09/04 01:54:55;;;;;;;;;1.33;1.33;;;;;20.97;53.69;98787.53;4874676;28;103665;-86
2022/09/04 01:57:33;;;;;;;;;0.00;0.00;;;;;20.96;53.79;98783.94;4871747;28;102604;-86
2022/09/04 02:00:11;;;;;;;;;1.00;1.00;;;;;20.94;53.80;98781.44;4872647;28;104293;-86
2022/09/04 02:03:09;;;;;;;;;1.00;1.00;;;;;20.95;54.13;98779.53;4871967;28;102556;-86
2022/09/04 02:06:13;;;;;;;;;0.00;0.00;;;;;20.95;54.18;98782.28;4879153;28;102612;-86
2022/09/04 02:09:09;;;;;;;;;0.67;0.67;;;;;20.94;53.61;98783.34;4874857;28;102473;-86
2022/09/04 02:11:38;;;;;;;;;0.33;0.33;;;;;20.94;54.07;98786.94;4833889;28;109101;-86
2022/09/04 02:14:47;;;;;;;;;0.33;0.33;;;;;20.93;53.90;98771.56;4877806;28;102387;-86
2022/09/04 02:17:26;;;;;;;;;0.67;0.67;;;;;20.93;53.53;98773.47;4861071;28;102550;-86
2022/09/04 02:20:15;;;;;;;;;1.67;0.67;;;;;20.93;53.65;98773.47;4858086;28;102638;-86
2022/09/04 02:23:04;;;;;;;;;0.67;0.67;;;;;20.93;53.72;98767.97;4868576;28;104091;-86
2022/09/04 02:25:37;;;;;;;;;0.33;0.33;;;;;20.91;53.90;98764.66;4865224;28;103099;-86
2022/09/04 02:28:31;;;;;;;;;0.00;0.00;;;;;20.91;53.79;98765.50;4854757;28;102707;-86
2022/09/04 02:31:03;;;;;;;;;0.67;0.67;;;;;20.90;53.62;98769.31;4868253;28;102599;-86
2022/09/04 02:33:34;;;;;;;;;1.00;1.00;;;;;20.90;53.71;98763.81;4873120;28;104059;-86
2022/09/04 02:36:14;;;;;;;;;1.00;1.00;;;;;20.90;53.70;98768.50;4874383;28;102765;-86
2022/09/04 02:39:12;;;;;;;;;0.67;0.67;;;;;20.88;53.95;98765.19;4857090;28;103710;-86
2022/09/04 02:42:03;;;;;;;;;0.67;0.67;;;;;20.90;53.79;98760.25;4866747;28;103624;-86
2022/09/04 02:45:00;;;;;;;;;0.33;0.33;;;;;20.88;53.94;98759.69;4870950;28;109004;-86
2022/09/04 02:47:49;;;;;;;;;0.33;0.33;;;;;20.88;53.65;98754.19;4869942;28;103537;-85
2022/09/04 02:50:54;;;;;;;;;1.67;0.67;;;;;20.88;54.06;98752.28;4876305;28;102543;-86
2022/09/04 02:53:43;;;;;;;;;0.67;0.67;;;;;20.88;53.41;98766.03;4874320;28;102652;-85
2022/09/04 02:56:22;;;;;;;;;1.33;1.33;;;;;20.87;53.93;98753.38;4879644;28;104192;-86
2022/09/04 02:59:06;;;;;;;;;0.33;0.33;;;;;20.87;53.43;98753.38;4870640;28;102397;-84
2022/09/04 03:02:14;;;;;;;;;0.00;0.00;;;;;20.86;53.49;98750.88;4879607;28;106139;-86
2022/09/04 03:04:59;;;;;;;;;1.00;1.00;;;;;20.85;53.66;98744.53;4859284;28;102956;-86
2022/09/04 03:07:40;;;;;;;;;0.00;0.00;;;;;20.85;53.94;98743.72;4876713;28;108154;-86
2022/09/04 03:10:16;;;;;;;;;1.00;1.00;;;;;20.84;53.67;98748.41;4857814;28;102514;-86
2022/09/04 03:12:51;;;;;;;;;0.00;0.00;;;;;20.85;53.92;98760.19;4871667;28;102126;-86
2022/09/04 03:15:44;;;;;;;;;1.33;0.67;;;;;20.84;54.13;98753.06;4862335;28;111978;-84
2022/09/04 03:18:38;;;;;;;;;0.33;0.33;;;;;20.83;53.76;98752.25;4876916;28;109317;-86
2022/09/04 03:21:09;;;;;;;;;1.00;1.00;;;;;20.82;53.98;98747.00;4871157;28;102484;-86
2022/09/04 03:23:58;;;;;;;;;1.00;1.00;;;;;20.83;53.94;98748.66;4875665;28;102731;-86
2022/09/04 03:26:36;;;;;;;;;1.00;1.00;;;;;20.83;53.54;98751.41;4874359;28;103774;-86
2022/09/04 03:29:41;;;;;;;;;1.67;1.33;;;;;20.82;53.92;98756.06;4873982;28;104053;-86
2022/09/04 03:32:23;;;;;;;;;1.00;1.00;;;;;20.82;53.75;98750.56;4871328;28;102147;-86
2022/09/04 03:34:55;;;;;;;;;1.00;1.00;;;;;20.82;53.38;98755.25;4875846;28;102108;-86
2022/09/04 03:38:01;;;;;;;;;0.00;0.00;;;;;20.83;53.30;98756.91;4872488;28;102642;-86
2022/09/04 03:40:46;;;;;;;;;1.00;1.00;;;;;20.82;53.47;98755.25;4837939;28;108646;-86
2022/09/04 03:43:16;;;;;;;;;0.67;0.67;;;;;20.81;53.84;98756.31;4874424;28;104167;-85
2022/09/04 03:46:14;;;;;;;;;0.33;0.33;;;;;20.80;53.18;98765.69;4875823;28;102407;-86
2022/09/04 03:49:04;;;;;;;;;1.67;1.00;;;;;20.80;53.60;98757.44;4874502;28;102636;-86
2022/09/04 03:51:49;;;;;;;;;0.00;0.00;;;;;20.79;53.49;98762.09;4880478;28;108802;-86
2022/09/04 03:54:22;;;;;;;;;1.00;1.00;;;;;20.79;54.08;98764.03;4877066;28;102327;-86
2022/09/04 03:56:59;;;;;;;;;0.67;0.67;;;;;20.79;53.58;98764.03;4876126;28;102273;-85
2022/09/04 03:59:44;;;;;;;;;1.00;1.00;;;;;20.78;53.55;98762.34;4874778;28;102502;-86
2022/09/04 04:02:13;;;;;;;;;2.00;2.00;;;;;20.78;53.37;98767.84;4875226;28;104053;-86
2022/09/04 04:05:07;;;;;;;;;0.00;0.00;;;;;20.78;53.87;98760.44;4873681;28;102544;-86
2022/09/04 04:08:04;;;;;;;;;1.00;1.00;;;;;20.77;53.90;98764.28;4872235;28;102546;-86
2022/09/04 04:10:57;;;;;;;;;0.00;0.00;;;;;20.77;53.77;98763.44;4867660;28;102807;-86
2022/09/04 04:13:32;;;;;;;;;1.00;1.00;;;;;20.76;53.40;98767.28;4873522;28;108559;-86
2022/09/04 04:16:20;;;;;;;;;1.00;1.00;;;;;20.77;53.56;98763.44;4874481;28;102206;-86
2022/09/04 04:19:09;;;;;;;;;1.00;1.00;;;;;20.76;53.64;98772.78;4870381;28;102251;-85
2022/09/04 04:22:13;;;;;;;;;0.67;0.67;;;;;20.77;53.24;98779.94;4877787;28;102621;-86
2022/09/04 04:24:47;;;;;;;;;1.67;0.67;;;;;20.76;53.16;98783.75;4872905;28;109150;-85
2022/09/04 04:27:32;;;;;;;;;1.67;1.00;;;;;20.75;53.54;98782.97;4877460;28;102469;-86
2022/09/04 04:30:07;;;;;;;;;0.00;0.00;;;;;20.74;53.41;98792.28;4871107;28;103543;-86
2022/09/04 04:32:49;;;;;;;;;1.00;1.00;;;;;20.74;53.50;98785.97;4867043;28;103973;-86
2022/09/04 04:35:48;;;;;;;;;1.00;1.00;;;;;20.74;53.88;98781.31;4879624;28;109251;-86
2022/09/04 04:38:25;;;;;;;;;1.00;1.00;;;;;20.74;53.88;98792.28;4871935;28;102356;-86
2022/09/04 04:41:07;;;;;;;;;1.00;1.00;;;;;20.73;53.87;98798.03;4878991;28;102174;-86
2022/09/04 04:43:56;;;;;;;;;0.00;0.00;;;;;20.73;53.61;98803.53;4873752;28;102391;-86
2022/09/04 04:46:49;;;;;;;;;1.00;1.00;;;;;20.72;53.78;98813.69;4875717;28;108815;-86
2022/09/04 04:49:50;;;;;;;;;0.33;0.33;;;;;20.72;53.55;98810.94;4876103;28;102325;-86
2022/09/04 04:52:17;;;;;;;;;0.00;0.00;;;;;20.73;53.90;98820.03;4872291;28;102575;-86
2022/09/04 04:54:50;;;;;;;;;1.00;1.00;;;;;20.71;53.83;98820.31;4875250;28;102553;-86
2022/09/04 04:57:24;;;;;;;;;0.00;0.00;;;;;20.72;53.43;98826.59;4875917;28;108776;-86
2022/09/04 05:00:18;;;;;;;;;1.00;1.00;;;;;20.72;53.49;98821.09;4870854;28;102624;-85
2022/09/04 05:03:07;;;;;;;;;0.67;0.67;;;;;20.71;53.51;98830.47;4874468;28;102572;-86
2022/09/04 05:06:11;;;;;;;;;1.00;1.00;;;;;20.72;53.45;98832.09;4876716;28;102807;-86
2022/09/04 05:08:40;;;;;;;;;1.00;1.00;;;;;20.70;53.49;98831.56;4866964;28;108894;-86
2022/09/04 05:11:28;;;;;;;;;1.00;1.00;;;;;20.70;53.34;98834.28;4876427;28;102590;-86
2022/09/04 05:14:25;;;;;;;;;0.67;0.67;;;;;20.70;53.75;98840.63;4869923;28;104658;-86
2022/09/04 05:17:19;;;;;;;;;0.67;0.67;;;;;20.69;53.64;98844.47;4875392;28;102548;-86
2022/09/04 05:19:59;;;;;;;;;0.00;0.00;;;;;20.69;53.86;98847.22;4872354;28;108797;-86
2022/09/04 05:22:53;;;;;;;;;0.00;0.00;;;;;20.69;53.68;98846.38;4872404;28;103717;-86
2022/09/04 05:25:46;;;;;;;;;0.00;0.00;;;;;20.69;53.88;98849.13;4873942;28;102428;-84
2022/09/04 05:28:34;;;;;;;;;1.00;1.00;;;;;20.68;53.78;98841.97;4867134;28;102812;-85
2022/09/04 05:31:34;;;;;;;;;1.00;1.00;;;;;20.69;53.33;98849.94;4856320;28;109052;-86
2022/09/04 05:34:06;;;;;;;;;1.67;1.67;;;;;20.68;53.43;98861.19;4869928;28;102701;-86
2022/09/04 05:36:55;;;;;;;;;1.00;1.00;;;;;20.69;53.61;98851.88;4872330;28;102427;-85
2022/09/04 05:39:31;;;;;;;;;1.00;1.00;;;;;20.67;52.99;98854.06;4875700;28;102689;-85
2022/09/04 05:42:03;;;;;;;;;1.00;1.00;;;;;20.67;53.60;98857.63;4874219;28;104205;-85
2022/09/04 05:45:06;;;;;;;;;0.67;0.67;;;;;20.69;53.34;98851.88;4876052;28;102639;-86
2022/09/04 05:48:01;;;;;;;;;0.33;0.33;;;;;20.69;53.35;98851.88;4826703;28;102398;-85
2022/09/04 05:50:54;;;;;;;;;1.00;1.00;;;;;20.69;53.59;98860.13;4871323;28;102336;-85
2022/09/04 05:53:55;;;;;;;;;0.33;0.33;;;;;20.68;53.73;98861.19;4875971;28;108669;-84
2022/09/04 05:56:50;;;;;;;;;1.00;1.00;;;;;20.68;53.58;98869.44;4874632;28;102214;-85
2022/09/04 05:59:55;;;;;;;;;2.00;1.00;;;;;20.67;53.53;98867.81;4876127;28;103256;-85
2022/09/04 06:02:34;;;;;;;;;0.00;0.00;;;;;20.67;53.42;98862.31;4795151;29;102524;-85
2022/09/04 06:05:03;;;;;;;;;1.67;1.00;;;;;20.67;53.62;98863.13;4870037;28;104268;-85
2022/09/04 06:07:44;;;;;;;;;1.33;1.33;;;;;20.68;53.42;98874.94;4875644;28;106628;-85
2022/09/04 06:10:36;;;;;;;;;0.00;0.00;;;;;20.67;53.68;98873.31;4876915;28;102506;-85
2022/09/04 06:13:37;;;;;;;;;2.00;0.33;;;;;20.67;53.91;98878.78;4877848;28;103486;-86
2022/09/04 06:16:16;;;;;;;;;0.00;0.00;;;;;20.67;53.75;98884.28;4875564;28;108877;-86
2022/09/04 06:19:02;;;;;;;;;0.00;0.00;;;;;20.67;53.33;98887.84;4877114;28;102490;-86
2022/09/04 06:21:47;;;;;;;;;1.00;0.33;;;;;20.67;53.84;98885.09;4875404;28;102538;-86
2022/09/04 06:24:29;;;;;;;;;0.67;0.67;;;;;20.69;53.81;98890.34;4875805;28;103899;-86
2022/09/04 06:27:02;;;;;;;;;0.67;0.67;;;;;20.67;53.54;98890.59;4874647;28;109011;-85
2022/09/04 06:29:46;;;;;;;;;0.00;0.00;;;;;20.67;53.27;98887.03;4878358;28;103588;-85
2022/09/04 06:32:39;;;;;;;;;0.67;0.67;;;;;20.68;53.29;98888.69;4869766;28;102879;-86
2022/09/04 06:35:43;;;;;;;;;1.00;1.00;;;;;20.69;53.63;98885.69;4871283;28;102428;-86
2022/09/04 06:38:10;;;;;;;;;1.00;1.00;;;;;20.69;53.55;98893.09;4871432;28;108907;-86
2022/09/04 06:40:52;;;;;;;;;0.67;0.67;;;;;20.69;53.33;98893.09;4873918;28;102615;-85
2022/09/04 06:43:42;;;;;;;;;0.33;0.33;;;;;20.69;53.24;98895.84;4874937;28;103777;-86
2022/09/04 06:46:46;;;;;;;;;1.00;1.00;;;;;20.69;53.65;98898.59;4871462;28;102602;-86
2022/09/04 06:49:39;;;;;;;;;1.00;1.00;;;;;20.70;53.72;98905.75;4867253;28;109142;-85
2022/09/04 06:52:31;;;;;;;;;0.00;0.00;;;;;20.71;53.58;98901.91;4871572;28;102743;-86
2022/09/04 06:55:20;;;;;;;;;1.00;1.00;;;;;20.70;53.46;98906.59;4872279;28;102691;-86
2022/09/04 06:57:50;;;;;;;;;1.00;1.00;;;;;20.71;53.51;98910.16;4875341;28;102700;-86
2022/09/04 07:00:18;;;;;;;;;1.00;1.00;;;;;20.72;53.69;98914.53;4875903;28;108261;-86
2022/09/04 07:03:13;;;;;;;;;1.00;0.00;;;;;20.73;53.69;98918.97;4856647;28;102844;-86
2022/09/04 07:06:48;;;;;;;;;1.00;1.00;;;;;20.72;53.21;98918.13;4873950;28;102470;-86
2022/09/04 07:09:25;;;;;;;;;0.00;0.00;;;;;20.72;53.22;98920.03;4767852;29;102725;-86
2022/09/04 07:12:13;;;;;;;;;1.00;1.00;;;;;20.74;53.12;98917.88;4848537;28;109020;-86
2022/09/04 07:14:46;;;;;;;;;1.00;1.00;;;;;20.73;53.71;98918.97;4871486;28;103276;-86
2022/09/04 07:18:04;;;;;;;;;0.00;0.00;;;;;20.73;53.28;98927.22;4874680;28;102223;-86
2022/09/04 07:21:09;;;;;;;;;1.67;1.67;;;;;20.73;53.29;98939.03;4854335;28;102420;-86
2022/09/04 07:23:57;;;;;;;;;1.00;1.00;;;;;20.73;53.46;98939.03;4871488;28;109296;-86
2022/09/04 07:26:57;;;;;;;;;1.00;1.00;;;;;20.73;53.58;98936.28;4867508;28;102408;-86
2022/09/04 07:29:33;;;;;;;;;1.00;1.00;;;;;20.74;53.87;98937.13;4869361;28;103815;-85
2022/09/04 07:32:10;;;;;;;;;1.00;1.00;;;;;20.73;53.70;98939.03;4857966;28;102159;-85
2022/09/04 07:35:06;;;;;;;;;0.00;0.00;;;;;20.75;53.20;98939.63;4855272;28;104246;-85
2022/09/04 07:37:38;;;;;;;;;1.00;1.00;;;;;20.75;53.35;98941.53;4871461;28;103617;-85
2022/09/04 07:40:14;;;;;;;;;0.00;0.00;;;;;20.76;53.61;98932.19;4873939;28;102492;-86
2022/09/04 07:42:47;;;;;;;;;0.00;0.00;;;;;20.76;53.58;98937.66;4877052;28;102629;-85
2022/09/04 07:45:37;;;;;;;;;0.33;0.33;;;;;20.77;53.17;98944.84;4873419;28;104066;-85
2022/09/04 07:48:18;;;;;;;;;1.00;0.00;;;;;20.77;53.67;98950.34;4873266;28;102248;-85
2022/09/04 07:51:09;;;;;;;;;2.00;0.67;;;;;20.79;53.26;98950.91;4858217;28;102177;-86
2022/09/04 07:54:04;;;;;;;;;0.67;0.00;;;;;20.79;53.10;98961.91;4881258;28;102666;-86
2022/09/04 07:56:41;;;;;;;;;0.67;0.67;;;;;20.78;53.59;98955.59;4879087;28;108870;-86
2022/09/04 07:59:34;;;;;;;;;0.33;0.33;;;;;20.79;53.14;98956.41;4885127;28;102383;-86
2022/09/04 08:02:36;;;;;;;;;0.00;0.00;;;;;20.78;53.08;98960.25;4877785;28;102935;-86
2022/09/04 08:05:13;;;;;;;;;0.67;0.67;;;;;20.79;53.15;98962.75;4886590;28;102330;-86
2022/09/04 08:07:40;;;;;;;;;1.00;1.00;;;;;20.79;53.17;98967.41;4870806;28;104192;-85
2022/09/04 08:10:48;;;;;;;;;0.00;0.00;;;;;20.79;53.33;98962.75;4875485;28;102532;-86
2022/09/04 08:13:46;;;;;;;;;0.33;0.33;;;;;20.80;53.45;98967.13;4844040;28;102529;-86
2022/09/04 08:16:31;;;;;;;;;1.67;1.33;;;;;20.81;53.54;98973.47;4830171;28;102842;-85
2022/09/04 08:18:59;;;;;;;;;1.00;1.00;;;;;20.82;53.57;98975.13;4847526;28;108953;-86
2022/09/04 08:21:30;;;;;;;;;0.67;0.00;;;;;20.81;53.06;98982.53;4866124;28;102546;-85
2022/09/04 08:24:29;;;;;;;;;0.67;0.00;;;;;20.83;53.35;98982.28;4867704;28;102474;-85
2022/09/04 08:27:08;;;;;;;;;1.33;0.67;;;;;20.83;53.35;98988.63;4861440;28;102531;-85
2022/09/04 08:29:56;;;;;;;;;1.00;1.00;;;;;20.84;53.43;98986.72;4862740;28;104243;-85
2022/09/04 08:32:48;;;;;;;;;0.00;0.00;;;;;20.83;53.45;99002.38;4856246;28;102496;-85
2022/09/04 08:35:40;;;;;;;;;0.00;0.00;;;;;20.84;53.23;98994.97;4853424;28;102175;-85
2022/09/04 08:38:12;;;;;;;;;0.33;0.33;;;;;20.84;53.05;98995.78;4855668;28;103094;-85
2022/09/04 08:41:18;;;;;;;;;0.00;0.00;;;;;20.84;53.33;99008.69;4851316;28;104152;-85
2022/09/04 08:43:57;;;;;;;;;1.00;1.00;;;;;20.84;53.21;99014.19;4852603;28;103479;-87
2022/09/04 08:46:51;;;;;;;;;0.67;0.67;;;;;20.85;53.08;99024.09;4854451;28;104218;-85
2022/09/04 08:49:27;;;;;;;;;1.00;0.33;;;;;20.85;53.50;99021.34;4854616;28;102820;-85
2022/09/04 08:52:19;;;;;;;;;0.00;0.00;;;;;20.86;53.63;99025.75;4860308;28;108960;-85
2022/09/04 08:55:01;;;;;;;;;1.00;0.00;;;;;20.86;54.48;99025.75;4857035;28;102314;-84
2022/09/04 08:57:57;;;;;;;;;0.00;0.00;;;;;20.86;54.58;99026.59;4868883;28;102448;-84
2022/09/04 09:00:42;;;;;;;;;0.00;0.00;;;;;20.87;54.89;99030.16;4860269;28;105485;-84
2022/09/04 09:03:16;;;;;;;;;0.33;0.33;;;;;20.87;54.95;99032.91;4849282;28;108901;-84
2022/09/04 09:05:49;;;;;;;;;0.33;0.33;;;;;20.86;55.43;99034.00;4858495;28;102720;-83
2022/09/04 09:08:41;;;;;;;;;0.67;0.67;;;;;20.87;53.57;99030.16;4856275;28;102752;-78
2022/09/04 09:11:20;;;;;;;;;2.00;1.67;;;;;20.82;52.41;99036.44;4847239;28;102786;-82
2022/09/04 09:14:16;;;;;;;;;2.00;2.00;;;;;20.81;52.83;99028.44;4870142;28;104119;-82
2022/09/04 09:17:11;;;;;;;;;2.00;2.00;;;;;20.82;53.69;99035.59;4855018;28;103225;-83
2022/09/04 09:19:38;;;;;;;;;3.67;3.00;;;;;20.82;54.26;99041.09;4853880;28;104287;-82
2022/09/04 09:22:26;;;;;;;;;3.00;3.00;;;;;20.82;55.22;99035.59;4884726;28;102525;-82
2022/09/04 09:25:19;;;;;;;;;2.67;2.67;;;;;20.82;55.50;99038.34;4884540;28;108838;-83
2022/09/04 09:28:14;;;;;;;;;2.33;2.00;;;;;20.82;55.81;99032.84;4887998;28;102176;-82
2022/09/04 09:31:15;;;;;;;;;2.33;2.00;;;;;20.82;55.53;99030.94;4874457;28;102575;-82
2022/09/04 09:34:11;;;;;;;;;2.00;2.00;;;;;20.82;56.25;99033.69;4880087;28;102209;-83
2022/09/04 09:37:01;;;;;;;;;2.00;2.00;;;;;20.83;55.99;99031.78;4860194;28;108868;-82
2022/09/04 09:40:03;;;;;;;;;3.00;3.00;;;;;20.84;56.45;99036.19;4889161;28;105513;-83
2022/09/04 09:42:34;;;;;;;;;2.33;2.33;;;;;20.83;56.51;99038.09;4863559;28;102881;-82
2022/09/04 09:45:14;;;;;;;;;2.00;2.00;;;;;20.84;56.37;99039.78;4887598;28;102567;-82
2022/09/04 09:47:43;;;;;;;;;1.00;1.00;;;;;20.85;56.85;99041.41;4874695;28;104072;-82
2022/09/04 09:50:40;;;;;;;;;1.67;1.67;;;;;20.83;56.70;99026.28;4873630;28;102616;-82
2022/09/04 09:53:28;;;;;;;;;2.00;1.33;;;;;20.85;56.68;99035.06;4873732;28;102810;-83
2022/09/04 09:56:26;;;;;;;;;1.00;1.00;;;;;20.86;56.65;99042.25;4883465;28;102257;-83
2022/09/04 09:59:04;;;;;;;;;1.67;1.67;;;;;20.86;57.13;99039.50;4874484;28;108841;-83
2022/09/04 10:02:08;;;;;;;;;1.67;1.33;;;;;20.85;56.93;99035.06;4878105;28;102557;-82
2022/09/04 10:04:53;;;;;;;;;2.00;2.00;;;;;20.85;57.61;99040.56;4874638;28;103121;-82
2022/09/04 10:07:46;;;;;;;;;2.33;2.00;;;;;20.85;57.47;99037.81;4885102;28;102313;-83
2022/09/04 10:10:27;;;;;;;;;1.00;1.00;;;;;20.86;57.31;99039.50;4882723;28;108836;-83
2022/09/04 10:13:21;;;;;;;;;1.67;1.67;;;;;20.85;57.05;99041.41;4888920;28;102132;-82
2022/09/04 10:15:59;;;;;;;;;2.00;2.00;;;;;20.87;57.17;99038.41;4843944;28;102395;-82
2022/09/04 10:18:55;;;;;;;;;1.67;1.67;;;;;20.86;57.54;99040.31;4882935;28;102278;-82
2022/09/04 10:21:59;;;;;;;;;1.00;1.00;;;;;20.88;57.49;99040.09;4869398;28;108811;-83
2022/09/04 10:25:01;;;;;;;;;3.33;2.00;;;;;20.87;57.44;99041.16;4876636;28;102117;-83
2022/09/04 10:28:01;;;;;;;;;1.00;1.00;;;;;20.87;57.41;99042.00;4868849;28;102174;-82
2022/09/04 10:30:55;;;;;;;;;1.67;1.33;;;;;20.87;57.25;99044.75;4879915;28;102427;-83
2022/09/04 10:33:55;;;;;;;;;1.00;1.00;;;;;20.87;57.99;99043.91;4878642;28;110151;-83
2022/09/04 10:36:53;;;;;;;;;2.00;2.00;;;;;20.87;57.26;99055.75;4869004;28;102788;-83
2022/09/04 10:42:52;;;;;;;;;2.33;1.67;;;;;20.81;55.46;99056.75;4875374;28;102668;-81
2022/09/04 10:45:26;;;;;;;;;3.00;3.00;;;;;20.79;54.81;99052.63;4873501;28;104107;-82
2022/09/04 10:48:05;;;;;;;;;1.67;1.67;;;;;20.74;54.35;99067.13;4871170;28;102441;-81
2022/09/04 10:50:55;;;;;;;;;3.33;3.33;;;;;20.71;54.46;99066.81;4872634;28;102190;-82
2022/09/04 10:53:52;;;;;;;;;3.67;2.67;;;;;20.72;54.66;99062.94;4846259;28;102611;-82
2022/09/04 10:56:28;;;;;;;;;2.67;2.00;;;;;20.67;54.30;99071.97;4870297;28;109006;-82
2022/09/04 10:59:09;;;;;;;;;3.67;2.67;;;;;20.66;54.32;99067.56;4872424;28;103001;-82
2022/09/04 11:01:50;;;;;;;;;3.67;3.67;;;;;20.66;53.98;99077.72;4878337;28;102888;-82
2022/09/04 11:04:44;;;;;;;;;4.67;4.00;;;;;20.67;54.26;99077.47;4875818;28;103087;-82
2022/09/04 11:07:42;;;;;;;;;3.00;3.00;;;;;20.69;54.77;99079.97;4872598;28;108875;-82
2022/09/04 11:10:09;;;;;;;;;3.33;2.67;;;;;20.67;54.46;99080.22;4875428;28;105103;-82
2022/09/04 11:13:05;;;;;;;;;2.67;2.67;;;;;20.63;54.94;99086.47;4873543;28;102722;-82
2022/09/04 11:15:52;;;;;;;;;3.00;3.00;;;;;20.63;54.85;99081.81;4887901;28;102597;-81
2022/09/04 11:18:39;;;;;;;;;3.67;3.67;;;;;20.61;55.21;99078.50;4870547;28;104075;-82
2022/09/04 11:21:24;;;;;;;;;4.00;4.00;;;;;20.61;54.76;99073.00;4870110;28;103477;-83
2022/09/04 11:23:50;;;;;;;;;4.67;4.00;;;;;20.61;55.47;99073.00;4876916;28;103817;-82
2022/09/04 11:26:27;;;;;;;;;3.00;3.00;;;;;20.60;54.80;99070.50;4882355;28;102385;-82
2022/09/04 11:29:12;;;;;;;;;4.00;4.00;;;;;20.57;55.56;99071.84;4873961;28;103533;-80
2022/09/04 11:31:52;;;;;;;;;4.67;4.67;;;;;20.58;55.29;99073.50;4877747;28;103020;-82
2022/09/04 11:35:16;;;;;;;;;4.00;4.00;;;;;20.58;55.64;99072.69;4874788;28;102418;-82
2022/09/04 11:38:04;;;;;;;;;5.00;4.67;;;;;20.56;56.55;99070.19;4798807;29;102610;-82
2022/09/04 11:40:56;;;;;;;;;4.33;4.33;;;;;20.54;56.72;99075.09;4801975;29;108953;-81
2022/09/04 11:43:48;;;;;;;;;5.33;5.00;;;;;20.53;56.75;99075.34;4859907;28;102688;-81
2022/09/04 11:46:43;;;;;;;;;5.67;5.00;;;;;20.52;57.04;99079.19;4878430;28;102572;-82
2022/09/04 11:49:37;;;;;;;;;5.00;4.00;;;;;20.53;57.06;99083.59;4873434;28;102879;-82
2022/09/04 11:52:30;;;;;;;;;5.00;5.00;;;;;20.54;57.33;99077.84;4872627;28;108657;-81
2022/09/04 11:55:23;;;;;;;;;6.00;5.00;;;;;20.56;58.12;99083.09;4875382;28;102431;-81
2022/09/04 11:58:12;;;;;;;;;5.00;5.00;;;;;20.57;58.48;99080.09;4873724;28;102313;-82
2022/09/04 12:01:16;;;;;;;;;7.00;6.00;;;;;20.54;59.10;99071.50;4875373;28;102791;-82
2022/09/04 12:04:22;;;;;;;;;5.00;5.00;;;;;20.55;58.81;99078.66;4857531;28;109140;-82
2022/09/04 12:07:18;;;;;;;;;4.33;4.00;;;;;20.55;59.25;99073.16;4867563;28;105539;-82
2022/09/04 12:10:03;;;;;;;;;5.33;5.00;;;;;20.54;59.07;99077.84;4872513;28;102512;-82
2022/09/04 12:13:27;;;;;;;;;5.00;5.00;;;;;20.54;59.41;99069.59;4876614;28;102313;-82
2022/09/04 12:16:25;;;;;;;;;5.33;5.00;;;;;20.55;59.50;99067.69;4808204;29;108975;-78
2022/09/04 12:19:30;;;;;;;;;5.00;4.00;;;;;20.56;59.07;99066.59;4814406;29;102720;-85
2022/09/04 12:22:02;;;;;;;;;6.00;6.00;;;;;20.58;59.58;99068.00;4867145;28;102663;-84
2022/09/04 12:24:32;;;;;;;;;4.00;4.00;;;;;20.58;59.58;99068.00;4875733;28;110521;-85
2022/09/04 12:27:34;;;;;;;;;4.00;4.00;;;;;20.58;59.67;99068.00;4871451;28;109057;-85
2022/09/04 12:30:22;;;;;;;;;6.33;6.00;;;;;20.60;59.65;99068.59;4821373;28;103539;-84
2022/09/04 12:33:19;;;;;;;;;5.00;4.33;;;;;20.60;58.56;99079.56;4873068;28;102727;-86
2022/09/04 12:36:03;;;;;;;;;6.00;6.00;;;;;20.62;58.71;99069.19;4872047;28;102680;-86
2022/09/04 12:38:40;;;;;;;;;4.33;4.33;;;;;20.67;59.21;99060.16;4865839;28;108923;-84
